createdAt,value
2017-10-12T00:00:54.881Z,100661.16
2017-10-12T00:03:21.146Z,100657.55
2017-10-12T00:05:47.353Z,100652.42
2017-10-12T00:08:13.568Z,100662.39
2017-10-12T00:10:39.801Z,100654.92
2017-10-12T00:13:06.011Z,100663.17
2017-10-12T00:15:32.219Z,100662.84
2017-10-12T00:17:58.486Z,100666.52
2017-10-12T00:20:24.702Z,100663.61
2017-10-12T00:22:50.947Z,100664.17
2017-10-12T00:25:17.198Z,100661.44
2017-10-12T00:27:43.415Z,100662.34
2017-10-12T00:30:09.624Z,100661.38
2017-10-12T00:32:35.896Z,100659.45
2017-10-12T00:35:02.125Z,100658.19
2017-10-12T00:37:28.450Z,100657.47
2017-10-12T00:39:54.696Z,100660.87
2017-10-12T00:42:20.927Z,100660.87
2017-10-12T00:44:47.142Z,100665.52
2017-10-12T00:47:13.417Z,100666.42
2017-10-12T00:49:39.816Z,100664.19
2017-10-12T00:52:06.061Z,100665.20
2017-10-12T00:54:32.492Z,100669.87
2017-10-12T00:56:58.733Z,100665.62
2017-10-12T00:59:24.971Z,100661.20
2017-10-12T01:01:51.244Z,100655.72
2017-10-12T01:04:17.471Z,100662.19
2017-10-12T01:06:43.686Z,100652.89
2017-10-12T01:09:09.968Z,100650.14
2017-10-12T01:11:36.202Z,100649.65
2017-10-12T01:14:02.465Z,100650.95
2017-10-12T01:16:28.752Z,100644.14
2017-10-12T01:18:54.975Z,100643.40
2017-10-12T01:21:21.198Z,100644.16
2017-10-12T01:23:47.461Z,100639.15
2017-10-12T01:26:13.680Z,100639.49
2017-10-12T01:28:39.894Z,100640.98
2017-10-12T01:31:06.151Z,100633.73
2017-10-12T01:33:32.374Z,100638.28
2017-10-12T01:35:58.595Z,100628.23
2017-10-12T01:38:24.862Z,100631.13
2017-10-12T01:40:51.099Z,100629.71
2017-10-12T01:43:17.328Z,100634.03
2017-10-12T01:45:43.612Z,100632.94
2017-10-12T01:48:09.840Z,100631.27
2017-10-12T01:50:36.068Z,100636.77
2017-10-12T01:53:02.347Z,100639.97
2017-10-12T01:55:28.575Z,100646.64
2017-10-12T01:57:54.817Z,100640.30
2017-10-12T02:00:21.085Z,100641.91
2017-10-12T02:02:47.323Z,100645.89
2017-10-12T02:05:13.561Z,100643.06
2017-10-12T02:07:39.806Z,100646.47
2017-10-12T02:10:06.033Z,100644.89
2017-10-12T02:12:32.284Z,100641.91
2017-10-12T02:14:58.544Z,100641.41
2017-10-12T02:17:24.777Z,100642.31
2017-10-12T02:19:51.013Z,100634.42
2017-10-12T02:22:17.260Z,100634.66
2017-10-12T02:24:43.496Z,100637.23
2017-10-12T02:27:09.781Z,100634.48
2017-10-12T02:29:36.040Z,100638.81
2017-10-12T02:32:02.276Z,100637.47
2017-10-12T02:34:28.506Z,100646.37
2017-10-12T02:36:54.778Z,100644.54
2017-10-12T02:39:21.155Z,100644.20
2017-10-12T02:41:47.388Z,100641.96
2017-10-12T02:44:13.666Z,100637.19
2017-10-12T02:46:40.035Z,100636.00
2017-10-12T02:49:06.257Z,100635.26
2017-10-12T02:51:32.507Z,100642.70
2017-10-12T02:53:58.740Z,100642.05
2017-10-12T02:56:24.970Z,100633.67
2017-10-12T02:58:51.193Z,100643.90
2017-10-12T03:01:17.425Z,100646.58
2017-10-12T03:03:43.645Z,100650.13
2017-10-12T03:06:09.930Z,100632.52
2017-10-12T03:08:36.167Z,100648.11
2017-10-12T03:11:02.386Z,100646.87
2017-10-12T03:13:28.737Z,100644.22
2017-10-12T03:15:54.973Z,100645.48
2017-10-12T03:18:21.187Z,100647.63
2017-10-12T03:20:47.459Z,100645.98
2017-10-12T03:23:13.695Z,100646.22
2017-10-12T03:25:39.936Z,100643.34
2017-10-12T03:28:06.213Z,100644.08
2017-10-12T03:30:32.444Z,100647.13
2017-10-12T03:32:58.667Z,100647.05
2017-10-12T03:35:24.936Z,100650.36
2017-10-12T03:37:51.171Z,100650.46
2017-10-12T03:40:17.389Z,100657.64
2017-10-12T03:42:43.626Z,100658.75
2017-10-12T03:45:09.842Z,100658.75
2017-10-12T03:47:36.074Z,100651.79
2017-10-12T03:50:02.344Z,100654.30
2017-10-12T03:52:28.578Z,100662.68
2017-10-12T03:54:54.811Z,100654.96
2017-10-12T03:57:21.082Z,100655.69
2017-10-12T03:59:47.312Z,100661.48
2017-10-12T04:02:13.530Z,100650.11
2017-10-12T04:04:39.795Z,100659.94
2017-10-12T04:07:06.031Z,100657.17
2017-10-12T04:09:32.258Z,100656.39
2017-10-12T04:11:58.524Z,100659.83
2017-10-12T04:14:24.761Z,100659.30
2017-10-12T04:16:50.974Z,100665.70
2017-10-12T04:19:17.326Z,100656.86
2017-10-12T04:21:43.556Z,100662.29
2017-10-12T04:24:09.807Z,100659.86
2017-10-12T04:26:36.042Z,100663.29
2017-10-12T04:29:02.270Z,100667.85
2017-10-12T04:31:28.533Z,100663.45
2017-10-12T04:33:54.845Z,100666.77
2017-10-12T04:36:21.075Z,100670.02
2017-10-12T04:38:47.300Z,100667.95
2017-10-12T04:41:13.563Z,100671.80
2017-10-12T04:43:39.803Z,100672.66
2017-10-12T04:46:06.026Z,100673.47
2017-10-12T04:48:32.281Z,100674.00
2017-10-12T04:50:58.494Z,100675.34
2017-10-12T04:53:24.717Z,100675.69
2017-10-12T04:55:50.991Z,100675.39
2017-10-12T04:58:17.212Z,100678.32
2017-10-12T05:00:43.432Z,100679.97
2017-10-12T05:03:09.675Z,100683.66
2017-10-12T05:05:35.916Z,100679.47
2017-10-12T05:08:02.188Z,100681.52
2017-10-12T05:10:28.468Z,100684.00
2017-10-12T05:12:54.698Z,100687.34
2017-10-12T05:15:20.984Z,100694.02
2017-10-12T05:17:47.246Z,100690.58
2017-10-12T05:20:13.473Z,100694.08
2017-10-12T05:22:39.687Z,100696.09
2017-10-12T05:25:05.964Z,100702.63
2017-10-12T05:27:32.204Z,100705.70
2017-10-12T05:29:58.422Z,100706.95
2017-10-12T05:32:24.712Z,100703.64
2017-10-12T05:34:50.950Z,100701.14
2017-10-12T05:37:17.205Z,100706.87
2017-10-12T05:39:43.461Z,100704.09
2017-10-12T05:42:09.680Z,100709.14
2017-10-12T05:44:35.894Z,100708.98
2017-10-12T05:47:02.161Z,100704.41
2017-10-12T05:49:28.396Z,100704.39
2017-10-12T05:51:54.632Z,100710.48
2017-10-12T05:54:20.909Z,100708.83
2017-10-12T05:56:47.132Z,100715.32
2017-10-12T05:59:13.365Z,100717.88
2017-10-12T06:01:39.648Z,100718.66
2017-10-12T06:04:05.875Z,100717.36
2017-10-12T06:06:32.100Z,100719.50
2017-10-12T06:08:58.394Z,100718.65
2017-10-12T06:11:24.564Z,100721.52
2017-10-12T06:13:50.732Z,100722.06
2017-10-12T06:16:16.942Z,100717.39
2017-10-12T06:18:43.129Z,100720.84
2017-10-12T06:21:09.290Z,100723.27
2017-10-12T06:23:35.510Z,100726.80
2017-10-12T06:26:01.688Z,100722.36
2017-10-12T06:28:27.867Z,100726.41
2017-10-12T06:30:54.069Z,100720.06
2017-10-12T06:33:20.268Z,100711.39
2017-10-12T06:35:46.460Z,100717.91
2017-10-12T06:38:12.783Z,100726.89
2017-10-12T06:40:38.946Z,100722.20
2017-10-12T06:43:05.132Z,100719.83
2017-10-12T06:45:31.409Z,100718.08
2017-10-12T06:47:57.577Z,100724.22
2017-10-12T06:50:23.739Z,100721.39
2017-10-12T06:52:49.956Z,100715.97
2017-10-12T06:55:16.122Z,100719.66
2017-10-12T06:57:42.300Z,100722.16
2017-10-12T07:00:08.517Z,100716.67
2017-10-12T07:02:34.692Z,100719.64
2017-10-12T07:05:00.882Z,100719.27
2017-10-12T07:07:27.934Z,100708.10
2017-10-12T07:09:54.261Z,100705.42
2017-10-12T07:12:20.444Z,100709.08
2017-10-12T07:14:46.664Z,100709.08
2017-10-12T07:17:12.848Z,100702.33
2017-10-12T07:19:39.036Z,100701.93
2017-10-12T07:22:05.261Z,100696.21
2017-10-12T07:24:31.449Z,100700.57
2017-10-12T07:26:57.622Z,100694.59
2017-10-12T07:29:23.841Z,100692.61
2017-10-12T07:31:50.014Z,100688.52
2017-10-12T07:34:16.213Z,100695.25
2017-10-12T07:36:42.440Z,100692.06
2017-10-12T07:39:08.619Z,100688.27
2017-10-12T07:41:34.786Z,100684.88
2017-10-12T07:44:01.001Z,100686.05
2017-10-12T07:46:27.180Z,100680.70
2017-10-12T07:48:53.376Z,100679.93
2017-10-12T07:51:19.591Z,100674.52
2017-10-12T07:53:45.770Z,100677.53
2017-10-12T07:56:11.948Z,100674.13
2017-10-12T07:58:38.188Z,100672.19
2017-10-12T08:01:04.381Z,100673.14
2017-10-12T08:03:30.559Z,100662.78
2017-10-12T08:05:56.780Z,100667.01
2017-10-12T08:08:22.961Z,100661.91
2017-10-12T08:10:49.127Z,100663.31
2017-10-12T08:13:15.345Z,100663.94
2017-10-12T08:15:41.530Z,100660.11
2017-10-12T08:18:07.699Z,100658.17
2017-10-12T08:20:33.912Z,100658.98
2017-10-12T08:23:00.095Z,100659.16
2017-10-12T08:25:26.270Z,100649.61
2017-10-12T08:27:52.489Z,100648.86
2017-10-12T08:30:18.665Z,100652.41
2017-10-12T08:32:44.841Z,100653.48
2017-10-12T08:35:11.100Z,100644.02
2017-10-12T08:37:37.283Z,100646.17
2017-10-12T08:40:03.469Z,100643.70
2017-10-12T08:42:29.681Z,100644.96
2017-10-12T08:44:55.876Z,100643.16
2017-10-12T08:47:22.054Z,100634.64
2017-10-12T08:49:48.283Z,100637.09
2017-10-12T08:52:14.472Z,100636.46
2017-10-12T08:54:40.655Z,100629.74
2017-10-12T08:57:06.875Z,100635.92
2017-10-12T08:59:33.053Z,100632.92
2017-10-12T09:01:59.227Z,100622.27
2017-10-12T09:04:25.440Z,100625.95
2017-10-12T09:06:51.629Z,100622.12
2017-10-12T09:09:17.873Z,100617.67
2017-10-12T09:11:44.079Z,100617.47
2017-10-12T09:14:10.260Z,100619.19
2017-10-12T09:16:36.445Z,100617.02
2017-10-12T09:19:02.646Z,100614.08
2017-10-12T09:21:28.869Z,100600.43
2017-10-12T09:23:55.046Z,100612.38
2017-10-12T09:26:21.337Z,100612.12
2017-10-12T09:28:47.568Z,100613.05
2017-10-12T09:31:13.795Z,100605.61
2017-10-12T09:33:40.038Z,100596.47
2017-10-12T09:36:06.460Z,100596.80
2017-10-12T09:38:32.691Z,100591.77
2017-10-12T09:40:58.986Z,100585.23
2017-10-12T09:43:25.344Z,100589.70
2017-10-12T09:45:51.554Z,100588.81
2017-10-12T09:48:17.810Z,100583.34
2017-10-12T09:50:44.040Z,100578.14
2017-10-12T09:53:10.258Z,100571.47
2017-10-12T09:55:36.545Z,100575.11
2017-10-12T09:58:02.770Z,100575.45
2017-10-12T10:00:28.994Z,100574.44
2017-10-12T10:02:55.261Z,100571.27
2017-10-12T10:05:21.474Z,100573.38
2017-10-12T10:07:47.838Z,100571.44
2017-10-12T10:10:14.108Z,100569.18
2017-10-12T10:12:40.340Z,100564.30
2017-10-12T10:15:06.566Z,100559.75
2017-10-12T10:17:32.821Z,100566.44
2017-10-12T10:19:59.040Z,100556.68
2017-10-12T10:22:25.272Z,100554.44
2017-10-12T10:24:51.548Z,100563.16
2017-10-12T10:27:17.827Z,100550.86
2017-10-12T10:29:44.055Z,100549.00
2017-10-12T10:32:10.328Z,100543.50
2017-10-12T10:34:36.561Z,100544.43
2017-10-12T10:37:02.796Z,100531.72
2017-10-12T10:39:29.078Z,100546.91
2017-10-12T10:41:55.311Z,100540.52
2017-10-12T10:44:21.675Z,100543.03
2017-10-12T10:46:47.941Z,100535.83
2017-10-12T10:49:14.161Z,100529.51
2017-10-12T10:51:40.396Z,100526.50
2017-10-12T10:54:06.792Z,100523.02
2017-10-12T10:56:33.065Z,100522.66
2017-10-12T10:58:59.286Z,100524.16
2017-10-12T11:01:25.551Z,100520.42
2017-10-12T11:03:51.766Z,100514.90
2017-10-12T11:06:17.996Z,100516.04
2017-10-12T11:08:44.276Z,100506.68
2017-10-12T11:11:10.502Z,100511.95
2017-10-12T11:13:36.722Z,100509.64
2017-10-12T11:16:02.991Z,100511.20
2017-10-12T11:18:29.233Z,100505.41
2017-10-12T11:20:55.445Z,100506.35
2017-10-12T11:23:21.698Z,100503.28
2017-10-12T11:25:47.916Z,100494.05
2017-10-12T11:28:14.134Z,100497.79
2017-10-12T11:30:40.397Z,100498.56
2017-10-12T11:33:06.610Z,100486.78
2017-10-12T11:35:32.840Z,100492.25
2017-10-12T11:37:59.115Z,100491.27
2017-10-12T11:40:25.352Z,100486.55
2017-10-12T11:42:51.578Z,100492.70
2017-10-12T11:45:17.828Z,100490.78
2017-10-12T11:47:44.040Z,100486.98
2017-10-12T11:50:10.254Z,100494.14
2017-10-12T11:52:36.521Z,100482.19
2017-10-12T11:55:02.742Z,100481.93
2017-10-12T11:57:28.968Z,100479.87
2017-10-12T11:59:55.222Z,100481.10
2017-10-12T12:02:21.604Z,100473.12
2017-10-12T12:04:47.839Z,100472.86
2017-10-12T12:07:14.104Z,100470.51
2017-10-12T12:09:40.325Z,100472.16
2017-10-12T12:12:06.548Z,100474.08
2017-10-12T12:14:32.845Z,100468.63
2017-10-12T12:16:59.080Z,100465.33
2017-10-12T12:19:25.310Z,100462.66
2017-10-12T12:21:51.560Z,100461.52
2017-10-12T12:24:17.769Z,100465.90
2017-10-12T12:26:43.997Z,100459.14
2017-10-12T12:29:10.269Z,100451.07
2017-10-12T12:31:36.505Z,100455.69
2017-10-12T12:34:02.726Z,100446.45
2017-10-12T12:36:28.984Z,100451.86
2017-10-12T12:38:55.238Z,100449.05
2017-10-12T12:41:21.454Z,100448.32
2017-10-12T12:43:47.755Z,100442.73
2017-10-12T12:46:13.974Z,100444.16
2017-10-12T12:48:40.211Z,100434.36
2017-10-12T12:51:06.444Z,100443.89
2017-10-12T12:53:32.685Z,100442.78
2017-10-12T12:55:59.031Z,100446.09
2017-10-12T12:58:25.281Z,100442.85
2017-10-12T13:00:51.512Z,100438.81
2017-10-12T13:03:17.742Z,100440.30
2017-10-12T13:05:44.008Z,100432.49
2017-10-12T13:08:10.237Z,100427.91
2017-10-12T13:10:36.451Z,100433.97
2017-10-12T13:13:02.729Z,100429.53
2017-10-12T13:15:28.963Z,100432.29
2017-10-12T13:17:55.293Z,100430.41
2017-10-12T13:20:21.545Z,100432.42
2017-10-12T13:22:47.761Z,100428.05
2017-10-12T13:25:13.996Z,100432.20
2017-10-12T13:27:40.269Z,100429.11
2017-10-12T13:30:06.493Z,100425.50
2017-10-12T13:32:32.720Z,100428.23
2017-10-12T13:34:58.972Z,100433.53
2017-10-12T13:37:25.342Z,100429.61
2017-10-12T13:39:51.951Z,100430.64
2017-10-12T13:42:18.616Z,100432.31
2017-10-12T13:44:45.255Z,100431.94
2017-10-12T13:47:11.717Z,100432.59
2017-10-12T13:49:38.120Z,100433.11
2017-10-12T13:52:04.737Z,100431.88
2017-10-12T13:54:31.131Z,100430.62
2017-10-12T13:56:57.574Z,100428.64
2017-10-12T13:59:23.917Z,100428.61
2017-10-12T14:01:50.492Z,100426.87
2017-10-12T14:04:16.926Z,100432.02
2017-10-12T14:06:43.565Z,100432.17
2017-10-12T14:09:10.061Z,100428.77
2017-10-12T14:11:36.509Z,100432.34
2017-10-12T14:14:03.020Z,100423.37
2017-10-12T14:16:29.462Z,100424.00
2017-10-12T14:18:55.875Z,100424.87
2017-10-12T14:21:22.371Z,100424.48
2017-10-12T14:23:48.985Z,100428.09
2017-10-12T14:26:15.236Z,100424.73
2017-10-12T14:28:41.746Z,100427.17
2017-10-12T14:31:08.265Z,100432.53
2017-10-12T14:33:34.705Z,100430.52
2017-10-12T14:36:01.125Z,100427.29
2017-10-12T14:38:27.568Z,100433.84
2017-10-12T14:40:53.985Z,100428.82
2017-10-12T14:43:20.428Z,100429.66
2017-10-12T14:45:46.910Z,100425.97
2017-10-12T14:48:13.343Z,100425.16
2017-10-12T14:50:39.571Z,100424.75
2017-10-12T14:53:05.799Z,100431.45
2017-10-12T14:55:32.438Z,100428.16
2017-10-12T14:57:58.666Z,100432.79
2017-10-12T15:00:24.895Z,100435.31
2017-10-12T15:02:51.330Z,100434.99
2017-10-12T15:05:17.831Z,100433.29
2017-10-12T15:07:44.400Z,100443.28
2017-10-12T15:10:10.892Z,100447.73
2017-10-12T15:12:37.333Z,100448.30
2017-10-12T15:15:03.906Z,100447.86
2017-10-12T15:17:30.543Z,100457.70
2017-10-12T15:19:57.183Z,100457.86
2017-10-12T15:22:23.799Z,100454.63
2017-10-12T15:24:50.218Z,100463.29
2017-10-12T15:27:16.501Z,100458.19
2017-10-12T15:29:42.723Z,100464.19
2017-10-12T15:32:08.939Z,100465.12
2017-10-12T15:34:35.365Z,100465.98
2017-10-12T15:37:02.012Z,100458.64
2017-10-12T15:39:28.619Z,100458.39
2017-10-12T15:41:55.038Z,100461.72
2017-10-12T15:44:21.479Z,100461.78
2017-10-12T15:46:47.900Z,100466.92
2017-10-12T15:49:14.314Z,100465.96
2017-10-12T15:51:41.800Z,100468.45
2017-10-12T15:54:08.010Z,100465.08
2017-10-12T15:56:34.437Z,100473.11
2017-10-12T15:59:00.731Z,100471.26
2017-10-12T16:01:27.026Z,100473.61
2017-10-12T16:03:53.437Z,100474.83
2017-10-12T16:06:19.802Z,100478.86
2017-10-12T16:08:46.465Z,100480.83
2017-10-12T16:11:12.996Z,100473.54
2017-10-12T16:13:39.385Z,100481.22
2017-10-12T16:16:05.926Z,100480.98
2017-10-12T16:18:32.361Z,100480.47
2017-10-12T16:20:58.618Z,100486.75
2017-10-12T16:23:25.103Z,100484.20
2017-10-12T16:25:51.482Z,100472.08
2017-10-12T16:28:17.988Z,100488.10
2017-10-12T16:30:44.566Z,100489.19
2017-10-12T16:33:10.920Z,100491.02
2017-10-12T16:35:37.389Z,100493.55
2017-10-12T16:38:03.825Z,100498.10
2017-10-12T16:40:30.098Z,100497.59
2017-10-12T16:42:56.533Z,100498.27
2017-10-12T16:45:22.969Z,100495.88
2017-10-12T16:47:49.409Z,100498.09
2017-10-12T16:50:15.611Z,100496.94
2017-10-12T16:52:42.277Z,100496.81
2017-10-12T16:55:08.705Z,100502.16
2017-10-12T16:57:35.118Z,100501.55
2017-10-12T17:00:01.510Z,100492.27
2017-10-12T17:02:27.792Z,100503.50
2017-10-12T17:04:54.026Z,100496.25
2017-10-12T17:07:20.662Z,100497.47
2017-10-12T17:09:47.153Z,100499.13
2017-10-12T17:12:13.593Z,100505.61
2017-10-12T17:14:40.168Z,100505.42
2017-10-12T17:17:06.776Z,100515.25
2017-10-12T17:19:33.217Z,100511.13
2017-10-12T17:21:59.663Z,100505.39
2017-10-12T17:24:26.107Z,100518.39
2017-10-12T17:26:52.565Z,100513.22
2017-10-12T17:29:19.034Z,100515.63
2017-10-12T17:31:45.454Z,100517.27
2017-10-12T17:34:12.041Z,100524.23
2017-10-12T17:36:38.657Z,100517.80
2017-10-12T17:39:05.076Z,100520.10
2017-10-12T17:41:31.499Z,100511.97
2017-10-12T17:43:58.040Z,100518.19
2017-10-12T17:48:50.849Z,100519.74
2017-10-12T17:51:17.238Z,100524.19
2017-10-12T17:53:43.501Z,100530.69
2017-10-12T17:56:09.736Z,100522.70
2017-10-12T17:58:36.375Z,100532.64
2017-10-12T18:01:02.578Z,100534.08
2017-10-12T18:03:28.874Z,100527.91
2017-10-12T18:05:55.314Z,100534.20
2017-10-12T18:08:21.703Z,100537.09
2017-10-12T18:10:48.146Z,100539.66
2017-10-12T18:13:14.362Z,100535.94
2017-10-12T18:15:40.594Z,100540.30
2017-10-12T18:18:06.940Z,100539.13
2017-10-12T18:20:36.142Z,100540.17
2017-10-12T18:23:02.804Z,100545.11
2017-10-12T18:25:29.227Z,100543.44
2017-10-12T18:27:55.686Z,100546.70
2017-10-12T18:30:22.134Z,100550.54
2017-10-12T18:32:48.649Z,100549.30
2017-10-12T18:35:15.367Z,100547.95
2017-10-12T18:37:41.892Z,100553.22
2017-10-12T18:40:08.367Z,100549.77
2017-10-12T18:42:34.921Z,100547.07
2017-10-12T18:45:01.498Z,100551.39
2017-10-12T18:47:27.855Z,100549.94
2017-10-12T18:52:21.082Z,100556.00
2017-10-12T18:54:47.536Z,100555.64
2017-10-12T18:57:14.231Z,100553.38
2017-10-12T18:59:40.764Z,100558.57
2017-10-12T19:02:07.572Z,100552.80
2017-10-12T19:04:33.938Z,100560.56
2017-10-12T19:07:00.557Z,100565.30
2017-10-12T19:09:27.094Z,100561.08
2017-10-12T19:11:53.555Z,100572.34
2017-10-12T19:14:20.155Z,100568.78
2017-10-12T19:16:46.789Z,100560.25
2017-10-12T19:19:13.548Z,100568.02
2017-10-12T19:21:40.072Z,100566.03
2017-10-12T19:24:06.608Z,100567.58
2017-10-12T19:26:33.747Z,100566.63
2017-10-12T19:29:00.335Z,100570.76
2017-10-12T19:31:26.834Z,100571.68
2017-10-12T19:33:53.239Z,100568.20
2017-10-12T19:36:19.720Z,100571.23
2017-10-12T19:38:46.208Z,100572.47
2017-10-12T19:43:39.277Z,100576.19
2017-10-12T19:46:05.824Z,100575.72
2017-10-12T19:48:32.256Z,100575.69
2017-10-12T19:55:51.268Z,100573.59
2017-10-12T19:58:17.800Z,100574.28
2017-10-12T20:00:44.181Z,100571.80
2017-10-12T20:03:10.555Z,100572.45
2017-10-12T20:05:36.832Z,100570.43
2017-10-12T20:08:03.142Z,100565.21
2017-10-12T20:10:29.501Z,100570.13
2017-10-12T20:12:55.861Z,100570.05
2017-10-12T20:15:22.152Z,100570.69
2017-10-12T20:17:48.528Z,100569.23
2017-10-12T20:20:14.772Z,100574.56
2017-10-12T20:22:40.984Z,100564.66
2017-10-12T20:25:07.206Z,100571.02
2017-10-12T20:27:33.435Z,100571.59
2017-10-12T20:29:59.650Z,100564.97
2017-10-12T20:32:25.882Z,100563.23
2017-10-12T20:34:52.103Z,100563.84
2017-10-12T20:37:18.318Z,100557.41
2017-10-12T20:39:44.529Z,100562.45
2017-10-12T20:42:13.716Z,100553.59
2017-10-12T20:44:37.085Z,100553.91
2017-10-12T20:47:03.346Z,100561.84
2017-10-12T20:51:55.717Z,100557.46
2017-10-12T20:54:21.939Z,100554.88
2017-10-12T20:56:48.136Z,100556.72
2017-10-12T20:59:14.361Z,100547.86
2017-10-12T21:01:40.568Z,100551.50
2017-10-12T21:04:06.867Z,100555.00
2017-10-12T21:06:33.202Z,100553.81
2017-10-12T21:08:59.448Z,100552.56
2017-10-12T21:11:25.654Z,100546.25
2017-10-12T21:13:51.881Z,100550.86
2017-10-12T21:16:18.132Z,100544.63
2017-10-12T21:18:44.330Z,100554.66
2017-10-12T21:21:10.546Z,100548.09
2017-10-12T21:23:36.776Z,100549.02
2017-10-12T21:26:03.002Z,100539.29
2017-10-12T21:28:29.287Z,100544.70
2017-10-12T21:30:55.505Z,100542.71
2017-10-12T21:33:21.726Z,100544.89
2017-10-12T21:35:47.950Z,100543.79
2017-10-12T21:38:14.165Z,100541.60
2017-10-12T21:40:40.414Z,100542.43
2017-10-12T21:43:06.640Z,100535.21
2017-10-12T21:45:32.831Z,100538.42
2017-10-12T21:47:59.072Z,100543.92
2017-10-12T21:50:25.281Z,100542.21
2017-10-12T21:52:51.721Z,100539.77
2017-10-12T21:55:17.959Z,100535.30
2017-10-12T21:57:44.193Z,100549.59
2017-10-12T22:00:10.444Z,100542.02
2017-10-12T22:02:36.674Z,100544.50
2017-10-12T22:05:03.084Z,100549.94
2017-10-12T22:07:29.341Z,100548.00
2017-10-12T22:09:55.537Z,100552.57
2017-10-12T22:12:21.754Z,100556.06
2017-10-12T22:14:47.999Z,100550.84
2017-10-12T22:17:14.242Z,100552.66
2017-10-12T22:19:40.472Z,100550.40
2017-10-12T22:22:06.711Z,100538.36
2017-10-12T22:24:33.003Z,100555.05
2017-10-12T22:26:59.235Z,100557.59
2017-10-12T22:29:25.459Z,100558.34
2017-10-12T22:31:51.721Z,100558.35
2017-10-12T22:34:17.942Z,100559.56
2017-10-12T22:36:44.157Z,100559.74
2017-10-12T22:39:10.382Z,100559.58
2017-10-12T22:41:36.601Z,100563.88
2017-10-12T22:44:02.825Z,100555.25
2017-10-12T22:46:29.140Z,100560.38
2017-10-12T22:48:55.362Z,100567.54
2017-10-12T22:51:21.571Z,100562.13
2017-10-12T22:53:47.789Z,100563.61
2017-10-12T22:56:14.007Z,100560.28
2017-10-12T22:58:40.208Z,100558.84
2017-10-12T23:01:06.440Z,100553.45
2017-10-12T23:03:32.659Z,100561.45
2017-10-12T23:05:58.924Z,100556.56
2017-10-12T23:08:25.144Z,100560.45
2017-10-12T23:10:51.384Z,100563.63
2017-10-12T23:13:17.655Z,100561.91
2017-10-12T23:15:43.890Z,100552.45
2017-10-12T23:18:10.122Z,100557.67
2017-10-12T23:20:36.342Z,100561.28
2017-10-12T23:23:02.580Z,100555.65
2017-10-12T23:25:28.811Z,100555.52
2017-10-12T23:27:55.021Z,100554.08
2017-10-12T23:30:21.229Z,100554.06
2017-10-12T23:32:47.445Z,100552.52
2017-10-12T23:35:13.712Z,100552.45
2017-10-12T23:37:39.940Z,100555.12
2017-10-12T23:40:06.148Z,100553.86
2017-10-12T23:42:32.378Z,100549.23
2017-10-12T23:44:58.601Z,100549.09
2017-10-12T23:47:24.822Z,100551.48
2017-10-12T23:49:51.096Z,100544.19
2017-10-12T23:52:17.317Z,100540.77
2017-10-12T23:54:43.539Z,100539.11
2017-10-12T23:57:09.762Z,100542.64
2017-10-12T23:59:35.979Z,100542.06
